Terminal Aerodrome Forecast
Issued by NWS New Orleans/Baton Rouge, LA

Home | Current Version | Previous Version | Text Only | Print | Product List | Glossary On
Versions: 1 2 3 4 5 6 7 8 9 10 11 12 13 14 15 16 17 18
000
FTUS44 KLIX 041700
TAFBTR
TAF
KBTR 041740Z 0418/0518 19012G20KT P6SM BKN025
     FM050000 19010KT P6SM VCSH BKN020
     FM050600 21005KT 3SM -SHRA BKN007
     FM051500 35013KT 5SM -RA OVC008=

USA.gov is the U.S. government's official web portal to all federal, state and local government web resources and services.